Time;durP1;ratioP1;P1;durP2;ratioP2;P2;SDS_P1;SDS_P2;PMS_P1;PMS_P2;Temp;Humidity;BMP_temperature;BMP_pressure;BME280_temperature;BME280_humidity;BME280_pressure;Samples;Min_cycle;Max_cycle;Signal;HPM_P1;HPM_P2
2022/07/01 00:02:11;;;;;;;;;;;;;;;18.18;61.70;100498.13;4972445;28;7379;-78
2022/07/01 00:04:37;;;;;;;;;;;;;;;18.16;61.62;100505.91;4948855;28;7117;-78
2022/07/01 00:07:03;;;;;;;;;;;;;;;18.14;61.84;100507.56;4975245;28;7194;-78
2022/07/01 00:09:28;;;;;;;;;;;;;;;18.14;62.37;100504.97;4969192;28;7326;-78
2022/07/01 00:11:54;;;;;;;;;;;;;;;18.16;62.02;100498.13;4981686;28;6987;-78
2022/07/01 00:14:22;;;;;;;;;;;;;;;18.17;61.97;100496.38;4971351;28;8466;-78
2022/07/01 00:16:50;;;;;;;;;;;;;;;18.16;62.08;100492.94;4973695;28;7166;-78
2022/07/01 00:19:16;;;;;;;;;;;;;;;18.16;62.13;100490.34;4970266;28;6808;-78
2022/07/01 00:21:42;;;;;;;;;;;;;;;18.15;62.14;100491.16;4933375;28;8138;-78
2022/07/01 00:24:07;;;;;;;;;;;;;;;18.14;61.83;100486.81;4967085;28;6948;-78
2022/07/01 00:26:35;;;;;;;;;;;;;;;18.17;62.06;100489.50;4967344;28;7223;-78
2022/07/01 00:29:00;;;;;;;;;;;;;;;18.18;61.55;100482.56;4950305;28;6828;-78
2022/07/01 00:31:26;;;;;;;;;;;;;;;18.18;61.90;100480.88;4975170;28;6795;-78
2022/07/01 00:33:52;;;;;;;;;;;;;;;18.17;61.71;100493.81;4959766;28;7240;-78
2022/07/01 00:36:17;;;;;;;;;;;;;;;18.15;62.23;100498.94;4949307;28;6983;-78
2022/07/01 00:38:43;;;;;;;;;;;;;;;18.14;62.10;100507.56;4981154;28;7009;-78
2022/07/01 00:41:09;;;;;;;;;;;;;;;18.14;62.12;100509.31;4978649;28;7187;-78
2022/07/01 00:43:38;;;;;;;;;;;;;;;18.13;61.86;100508.44;4962105;28;7210;-78
2022/07/01 00:46:04;;;;;;;;;;;;;;;18.10;61.89;100508.38;4934423;28;9488;-78
2022/07/01 00:48:33;;;;;;;;;;;;;;;18.09;61.71;100519.59;4935465;28;6983;-78
2022/07/01 00:50:58;;;;;;;;;;;;;;;18.07;61.76;100521.31;4931823;28;7160;-78
2022/07/01 00:53:25;;;;;;;;;;;;;;;18.04;61.75;100521.22;4974282;28;7286;-78
2022/07/01 00:55:51;;;;;;;;;;;;;;;18.03;61.61;100535.00;4973472;28;7252;-77
2022/07/01 00:58:17;;;;;;;;;;;;;;;18.03;62.17;100533.31;4935231;28;8531;-77
2022/07/01 01:00:43;;;;;;;;;;;;;;;18.03;62.33;100535.00;4960155;28;6966;-78
2022/07/01 01:03:10;;;;;;;;;;;;;;;18.03;62.12;100529.81;4973109;28;7093;-78
2022/07/01 01:05:40;;;;;;;;;;;;;;;18.06;62.22;100531.63;4959484;28;7097;-77
2022/07/01 01:08:10;;;;;;;;;;;;;;;18.07;61.95;100529.06;4932620;28;7214;-77
2022/07/01 01:10:37;;;;;;;;;;;;;;;18.09;62.11;100529.09;4959526;28;6993;-77
2022/07/01 01:13:04;;;;;;;;;;;;;;;18.08;62.00;100536.00;4937102;28;7011;-78
2022/07/01 01:15:31;;;;;;;;;;;;;;;18.10;62.44;100542.09;4961167;28;6970;-78
2022/07/01 01:17:57;;;;;;;;;;;;;;;18.12;62.15;100549.91;4948371;28;6796;-77
2022/07/01 01:20:22;;;;;;;;;;;;;;;18.16;62.42;100550.00;4927365;28;6825;-77
2022/07/01 01:22:49;;;;;;;;;;;;;;;18.21;62.23;100551.81;4957741;28;6961;-77
2022/07/01 01:25:15;;;;;;;;;;;;;;;18.22;61.93;100556.13;4950676;28;7003;-77
2022/07/01 01:27:42;;;;;;;;;;;;;;;18.22;62.05;100563.91;4975666;28;7258;-77
2022/07/01 01:30:14;;;;;;;;;;;;;;;18.23;62.15;100560.47;4969250;28;6876;-77
2022/07/01 01:32:41;;;;;;;;;;;;;;;18.25;62.24;100561.38;4957347;28;11605;-77
2022/07/01 01:35:10;;;;;;;;;;;;;;;18.24;62.07;100544.97;4957335;28;6982;-77
2022/07/01 01:37:36;;;;;;;;;;;;;;;18.24;61.96;100541.47;4963063;28;7241;-77
2022/07/01 01:40:03;;;;;;;;;;;;;;;18.24;61.45;100526.78;4977624;28;6927;-77
2022/07/01 01:42:29;;;;;;;;;;;;;;;18.22;61.46;100518.13;4957208;28;7274;-77
2022/07/01 01:44:54;;;;;;;;;;;;;;;18.18;61.20;100518.88;4977215;28;6784;-77
2022/07/01 01:47:20;;;;;;;;;;;;;;;18.14;61.34;100533.50;4974343;28;7227;-77
2022/07/01 01:49:46;;;;;;;;;;;;;;;18.11;61.59;100538.66;4948863;28;9611;-77
2022/07/01 01:52:12;;;;;;;;;;;;;;;18.08;61.69;100551.56;4956742;28;7244;-77
2022/07/01 01:54:37;;;;;;;;;;;;;;;18.05;61.45;100564.47;4948588;28;6975;-77
2022/07/01 01:57:04;;;;;;;;;;;;;;;18.04;61.48;100580.88;4960046;28;6960;-77
2022/07/01 01:59:30;;;;;;;;;;;;;;;18.01;61.90;100585.97;4948963;28;6939;-77
2022/07/01 02:01:56;;;;;;;;;;;;;;;18.00;61.82;100581.63;4969501;28;6938;-77
2022/07/01 02:04:23;;;;;;;;;;;;;;;17.98;61.64;100565.16;4972712;28;6776;-77
2022/07/01 02:06:50;;;;;;;;;;;;;;;17.97;61.82;100558.25;4960624;28;7304;-77
2022/07/01 02:09:16;;;;;;;;;;;;;;;17.94;61.66;100558.16;4956554;28;7015;-77
2022/07/01 02:11:42;;;;;;;;;;;;;;;17.94;61.41;100560.75;4971284;28;6788;-77
2022/07/01 02:14:07;;;;;;;;;;;;;;;17.93;61.36;100571.97;4962349;28;6983;-77
2022/07/01 02:16:33;;;;;;;;;;;;;;;17.91;61.55;100577.09;4971442;28;7036;-77
2022/07/01 02:18:59;;;;;;;;;;;;;;;17.89;61.39;100577.09;4954042;28;7165;-77
2022/07/01 02:21:24;;;;;;;;;;;;;;;17.88;61.90;100580.53;4973695;28;6952;-77
2022/07/01 02:23:52;;;;;;;;;;;;;;;17.87;61.47;100567.53;4927564;28;7261;-78
2022/07/01 02:26:18;;;;;;;;;;;;;;;17.88;61.67;100571.88;4948910;28;7925;-78
2022/07/01 02:28:45;;;;;;;;;;;;;;;17.87;61.71;100572.72;4977812;28;6791;-78
2022/07/01 02:31:10;;;;;;;;;;;;;;;17.89;62.13;100586.59;4947907;28;6792;-78
2022/07/01 02:33:36;;;;;;;;;;;;;;;17.90;61.77;100577.94;4950935;28;8565;-78
2022/07/01 02:36:02;;;;;;;;;;;;;;;17.89;61.54;100577.09;4937556;28;6856;-78
2022/07/01 02:38:28;;;;;;;;;;;;;;;17.91;62.06;100590.06;4936723;28;8429;-78
2022/07/01 02:40:54;;;;;;;;;;;;;;;17.93;61.92;100593.59;4963541;28;6795;-78
2022/07/01 02:43:19;;;;;;;;;;;;;;;17.93;61.54;100595.31;4963396;28;7218;-78
2022/07/01 02:45:45;;;;;;;;;;;;;;;17.95;61.34;100593.59;4976072;28;6974;-78
2022/07/01 02:48:11;;;;;;;;;;;;;;;17.98;61.60;100602.31;4961517;28;6776;-78
2022/07/01 02:50:36;;;;;;;;;;;;;;;17.99;61.55;100605.81;4937893;28;8491;-77
2022/07/01 02:53:03;;;;;;;;;;;;;;;18.00;61.62;100615.34;4950739;28;6920;-78
2022/07/01 02:55:31;;;;;;;;;;;;;;;18.01;61.85;100623.16;4952119;28;7334;-78
2022/07/01 02:57:57;;;;;;;;;;;;;;;18.01;61.81;100630.94;4960639;28;7340;-78
2022/07/01 03:00:24;;;;;;;;;;;;;;;18.04;61.95;100627.53;4950619;28;6780;-78
2022/07/01 03:02:50;;;;;;;;;;;;;;;18.05;61.73;100624.09;4957586;28;7001;-78
2022/07/01 03:05:16;;;;;;;;;;;;;;;18.06;61.69;100618.09;4949874;28;8729;-78
2022/07/01 03:07:42;;;;;;;;;;;;;;;18.10;61.59;100621.59;4957935;28;8046;-78
2022/07/01 03:10:09;;;;;;;;;;;;;;;18.14;61.49;100616.50;4974167;28;6800;-78
2022/07/01 03:12:35;;;;;;;;;;;;;;;18.17;61.23;100616.59;4973965;28;7095;-78
2022/07/01 03:15:03;;;;;;;;;;;;;;;18.19;61.65;100616.59;4934671;28;7129;-78
2022/07/01 03:17:33;;;;;;;;;;;;;;;18.20;61.15;100617.50;4962239;28;7146;-78
2022/07/01 03:20:01;;;;;;;;;;;;;;;18.21;60.92;100614.94;4933847;28;7292;-78
2022/07/01 03:22:29;;;;;;;;;;;;;;;18.20;61.56;100607.97;4971174;28;8282;-79
2022/07/01 03:24:56;;;;;;;;;;;;;;;18.24;61.16;100608.91;4949976;28;6969;-78
2022/07/01 03:27:22;;;;;;;;;;;;;;;18.25;60.91;100610.66;4938793;28;8589;-79
2022/07/01 03:29:48;;;;;;;;;;;;;;;18.25;60.66;100605.47;4964997;28;8535;-78
2022/07/01 03:32:14;;;;;;;;;;;;;;;18.26;61.34;100621.09;4944648;28;7215;-77
2022/07/01 03:34:43;;;;;;;;;;;;;;;18.28;60.89;100636.69;4934690;28;8588;-78
2022/07/01 03:37:11;;;;;;;;;;;;;;;18.26;60.98;100638.38;4937455;28;7008;-78
2022/07/01 03:39:38;;;;;;;;;;;;;;;18.27;61.17;100648.78;4945903;28;6788;-77
2022/07/01 03:42:06;;;;;;;;;;;;;;;18.27;61.12;100646.19;4948558;28;6983;-77
2022/07/01 03:44:33;;;;;;;;;;;;;;;18.29;61.11;100648.81;4974876;28;7228;-78
2022/07/01 03:46:59;;;;;;;;;;;;;;;18.30;60.90;100640.19;4980594;28;6856;-77
2022/07/01 03:49:25;;;;;;;;;;;;;;;18.32;60.80;100649.75;4933787;28;7235;-78
2022/07/01 03:51:51;;;;;;;;;;;;;;;18.33;61.06;100655.78;4939283;28;7271;-78
2022/07/01 03:54:29;;;;;;;;;;;;;;;18.34;60.51;100641.97;4976507;28;6791;-78
2022/07/01 03:57:08;;;;;;;;;;;;;;;18.32;60.96;100629.00;4972729;28;6992;-78
2022/07/01 03:59:39;;;;;;;;;;;;;;;18.34;60.85;100626.41;4950321;28;8449;-78
2022/07/01 04:02:06;;;;;;;;;;;;;;;18.35;60.75;100627.31;4945521;28;8357;-78
2022/07/01 04:04:34;;;;;;;;;;;;;;;18.32;60.14;100626.41;4946619;28;7848;-78
2022/07/01 04:07:03;;;;;;;;;;;;;;;18.29;60.39;100628.06;4945187;28;7884;-78
2022/07/01 04:09:31;;;;;;;;;;;;;;;18.25;60.36;100634.91;4958846;28;7023;-78
2022/07/01 04:11:57;;;;;;;;;;;;;;;18.22;60.60;100636.56;4929863;28;6998;-78
2022/07/01 04:14:26;;;;;;;;;;;;;;;18.20;60.53;100640.84;4960267;28;6836;-79
2022/07/01 04:16:53;;;;;;;;;;;;;;;18.18;60.41;100646.88;4978059;28;6804;-80
2022/07/01 04:19:19;;;;;;;;;;;;;;;18.16;60.19;100651.16;4945130;28;8354;-79
2022/07/01 04:24:32;;;;;;;;;;;;;;;18.14;60.75;100647.63;4960930;28;6808;-79
2022/07/01 04:26:59;;;;;;;;;;;;;;;18.17;60.51;100639.94;4968832;28;8483;-79
2022/07/01 04:29:25;;;;;;;;;;;;;;;18.18;60.77;100636.50;4936395;28;7005;-79
2022/07/01 04:31:51;;;;;;;;;;;;;;;18.21;60.95;100640.88;4950285;28;7595;-80
2022/07/01 04:34:18;;;;;;;;;;;;;;;18.23;60.77;100648.69;4933975;28;7254;-79
2022/07/01 04:36:44;;;;;;;;;;;;;;;18.26;60.87;100651.34;4970448;28;6970;-80
2022/07/01 04:39:09;;;;;;;;;;;;;;;18.31;60.84;100657.50;4933501;28;6981;-78
2022/07/01 04:44:20;;;;;;;;;;;;;;;18.37;60.69;100646.34;4963981;28;6797;-78
2022/07/01 04:46:46;;;;;;;;;;;;;;;18.40;60.80;100652.50;4959093;28;7854;-78
2022/07/01 04:49:11;;;;;;;;;;;;;;;18.43;60.29;100657.72;4932660;28;7027;-78
2022/07/01 04:51:37;;;;;;;;;;;;;;;18.45;60.22;100653.47;4961705;28;8434;-78
2022/07/01 04:54:08;;;;;;;;;;;;;;;18.49;60.92;100640.53;4973810;28;6968;-78
2022/07/01 04:56:36;;;;;;;;;;;;;;;18.53;60.50;100631.97;4963454;28;6973;-78
2022/07/01 04:59:02;;;;;;;;;;;;;;;18.58;60.67;100623.41;4959194;28;8583;-78
2022/07/01 05:01:28;;;;;;;;;;;;;;;18.66;61.00;100622.69;4949744;28;6988;-78
2022/07/01 05:03:55;;;;;;;;;;;;;;;18.76;60.47;100627.19;4978135;28;6796;-78
2022/07/01 05:06:21;;;;;;;;;;;;;;;18.84;60.64;100630.81;4978245;28;8029;-78
2022/07/01 05:08:46;;;;;;;;;;;;;;;18.94;60.62;100633.56;4946654;28;8020;-78
2022/07/01 05:11:12;;;;;;;;;;;;;;;19.04;60.31;100632.03;4955439;28;6947;-78
2022/07/01 05:13:38;;;;;;;;;;;;;;;19.09;60.10;100633.88;4929283;28;6931;-79
2022/07/01 05:16:04;;;;;;;;;;;;;;;19.13;60.23;100630.47;4971737;28;7373;-78
2022/07/01 05:24:00;;;;;;;;;;;;;;;19.13;59.96;100640.00;4952995;28;6796;-79
2022/07/01 05:26:25;;;;;;;;;;;;;;;19.16;59.68;100640.03;4948643;28;7417;-79
2022/07/01 05:28:55;;;;;;;;;;;;;;;19.19;59.54;100634.88;4964091;28;7196;-78
2022/07/01 05:31:21;;;;;;;;;;;;;;;19.24;59.60;100633.25;4976575;28;6788;-79
2022/07/01 05:33:47;;;;;;;;;;;;;;;19.25;59.98;100642.78;4949936;28;7158;-79
2022/07/01 05:36:14;;;;;;;;;;;;;;;19.27;59.72;100635.03;4961215;28;6796;-78
2022/07/01 05:38:40;;;;;;;;;;;;;;;19.28;60.17;100639.38;4977478;28;7279;-79
2022/07/01 05:41:07;;;;;;;;;;;;;;;19.32;59.73;100646.34;4942488;28;7042;-79
2022/07/01 05:43:34;;;;;;;;;;;;;;;19.39;60.14;100655.09;4956239;28;8436;-78
2022/07/01 05:46:00;;;;;;;;;;;;;;;19.49;59.81;100654.41;4954608;28;7233;-78
2022/07/01 05:48:26;;;;;;;;;;;;;;;19.59;59.81;100644.13;4952546;28;6788;-78
2022/07/01 05:50:52;;;;;;;;;;;;;;;19.71;59.85;100665.13;4950496;28;6784;-78
2022/07/01 05:53:18;;;;;;;;;;;;;;;19.83;59.90;100654.00;4957441;28;7263;-78
2022/07/01 05:55:43;;;;;;;;;;;;;;;19.95;59.74;100653.34;4948585;28;7198;-78
2022/07/01 05:58:13;;;;;;;;;;;;;;;20.06;59.58;100659.56;4978359;28;6772;-78
2022/07/01 06:00:43;;;;;;;;;;;;;;;20.18;59.39;100673.56;4960546;28;7255;-78
2022/07/01 06:03:14;;;;;;;;;;;;;;;20.28;59.14;100672.88;4946884;28;6975;-78
2022/07/01 06:05:41;;;;;;;;;;;;;;;20.32;58.52;100679.84;4976075;28;8115;-78
2022/07/01 06:08:07;;;;;;;;;;;;;;;20.32;58.23;100679.84;4963583;28;6994;-78
2022/07/01 06:10:34;;;;;;;;;;;;;;;20.31;58.14;100666.78;4963177;28;6987;-78
2022/07/01 06:13:00;;;;;;;;;;;;;;;20.29;57.74;100673.72;4957936;28;7389;-78
2022/07/01 06:15:26;;;;;;;;;;;;;;;20.23;57.87;100667.59;4947049;28;6957;-78
2022/07/01 06:17:53;;;;;;;;;;;;;;;20.18;57.63;100666.66;4948072;28;7024;-78
2022/07/01 06:20:19;;;;;;;;;;;;;;;20.18;57.97;100673.56;4973348;28;6784;-79
2022/07/01 06:22:45;;;;;;;;;;;;;;;20.19;58.40;100683.16;4975761;28;7121;-78
2022/07/01 06:25:11;;;;;;;;;;;;;;;20.25;58.37;100675.41;4970300;28;7063;-78
2022/07/01 06:27:41;;;;;;;;;;;;;;;20.28;57.94;100678.06;4941450;28;7420;-78
2022/07/01 06:30:08;;;;;;;;;;;;;;;20.28;57.82;100672.88;4976392;28;6977;-79
2022/07/01 06:32:33;;;;;;;;;;;;;;;20.28;57.71;100680.66;4931790;28;6983;-80
2022/07/01 06:34:59;;;;;;;;;;;;;;;20.34;58.67;100680.72;4948648;28;7953;-79
2022/07/01 06:37:25;;;;;;;;;;;;;;;20.49;58.76;100694.78;4934718;28;6962;-79
2022/07/01 06:39:50;;;;;;;;;;;;;;;20.59;58.07;100683.63;4954190;28;7191;-80
2022/07/01 06:42:16;;;;;;;;;;;;;;;20.65;57.63;100682.81;4966719;28;7002;-79
2022/07/01 06:44:42;;;;;;;;;;;;;;;20.69;57.83;100684.59;4979489;28;7122;-79
2022/07/01 06:47:08;;;;;;;;;;;;;;;20.72;57.46;100699.38;4958071;28;7672;-80
2022/07/01 06:49:33;;;;;;;;;;;;;;;20.75;57.21;100689.88;4944485;28;7873;-79
2022/07/01 06:51:59;;;;;;;;;;;;;;;20.75;56.36;100684.66;4972643;28;6807;-78
2022/07/01 06:54:25;;;;;;;;;;;;;;;20.74;56.36;100695.94;4971224;28;6771;-78
2022/07/01 06:56:51;;;;;;;;;;;;;;;20.76;56.43;100711.56;4941606;28;6772;-79
2022/07/01 06:59:16;;;;;;;;;;;;;;;20.77;56.52;100714.19;4971222;28;6808;-79
2022/07/01 07:01:42;;;;;;;;;;;;;;;20.75;56.07;100710.69;4964458;28;7043;-78
2022/07/01 07:04:08;;;;;;;;;;;;;;;20.76;56.34;100711.56;4944728;28;6792;-78
2022/07/01 07:06:33;;;;;;;;;;;;;;;20.79;56.87;100707.25;4964263;28;7216;-78
2022/07/01 07:08:59;;;;;;;;;;;;;;;20.88;57.30;100711.75;4971387;28;6973;-78
2022/07/01 07:11:26;;;;;;;;;;;;;;;20.99;56.80;100716.19;4943330;28;6792;-78
2022/07/01 07:13:52;;;;;;;;;;;;;;;21.10;56.89;100717.16;4969074;28;6887;-78
2022/07/01 07:16:21;;;;;;;;;;;;;;;21.24;57.09;100709.47;4956378;28;8692;-78
2022/07/01 07:18:50;;;;;;;;;;;;;;;21.41;56.58;100708.75;4928250;28;8499;-78
2022/07/01 07:21:16;;;;;;;;;;;;;;;21.59;56.68;100716.72;4941768;28;6804;-78
2022/07/01 07:23:42;;;;;;;;;;;;;;;21.80;56.78;100719.47;4958596;28;8890;-78
2022/07/01 07:26:09;;;;;;;;;;;;;;;22.07;56.71;100716.19;4926955;28;6995;-78
2022/07/01 07:28:35;;;;;;;;;;;;;;;22.39;56.44;100723.28;4955829;28;7198;-78
2022/07/01 07:31:01;;;;;;;;;;;;;;;22.69;55.38;100718.19;4957588;28;6804;-78
2022/07/01 07:33:26;;;;;;;;;;;;;;;22.87;54.31;100718.22;4968132;28;7158;-78
2022/07/01 07:35:52;;;;;;;;;;;;;;;22.98;53.20;100719.97;4944924;28;6784;-77
2022/07/01 07:38:18;;;;;;;;;;;;;;;23.00;52.35;100716.50;4955065;28;6970;-77
2022/07/01 07:40:44;;;;;;;;;;;;;;;22.98;52.17;100720.88;4974648;28;6975;-77
2022/07/01 07:43:10;;;;;;;;;;;;;;;22.94;52.39;100728.69;4943117;28;8370;-78
2022/07/01 07:45:35;;;;;;;;;;;;;;;23.00;52.91;100723.50;4961961;28;6785;-78
2022/07/01 07:48:02;;;;;;;;;;;;;;;23.10;52.55;100724.38;4962807;28;8878;-77
2022/07/01 07:50:28;;;;;;;;;;;;;;;23.31;52.65;100723.56;4949501;28;6808;-77
2022/07/01 07:52:53;;;;;;;;;;;;;;;23.44;51.77;100725.28;4960354;28;6981;-77
2022/07/01 07:55:19;;;;;;;;;;;;;;;23.57;51.64;100725.31;4977233;28;7198;-77
2022/07/01 07:57:45;;;;;;;;;;;;;;;23.77;51.22;100727.03;4953583;28;7195;-77
2022/07/01 08:00:12;;;;;;;;;;;;;;;23.99;50.82;100725.22;4967048;28;6987;-78
2022/07/01 08:02:40;;;;;;;;;;;;;;;24.17;50.00;100726.94;4975858;28;6804;-77
2022/07/01 08:05:08;;;;;;;;;;;;;;;24.31;49.91;100732.16;4933380;28;7184;-77
2022/07/01 08:07:42;;;;;;;;;;;;;;;24.62;49.71;100734.63;4937049;28;6972;-77
2022/07/01 08:10:12;;;;;;;;;;;;;;;25.05;49.01;100732.63;4972887;28;7420;-77
2022/07/01 08:12:39;;;;;;;;;;;;;;;25.42;48.40;100729.72;4931074;28;7185;-77
2022/07/01 08:15:06;;;;;;;;;;;;;;;25.87;47.84;100731.97;4952427;28;6800;-77
2022/07/01 08:17:32;;;;;;;;;;;;;;;26.17;46.38;100724.66;4954678;28;7066;-77
2022/07/01 08:19:58;;;;;;;;;;;;;;;26.16;44.91;100725.53;4962293;28;7169;-77
2022/07/01 08:22:23;;;;;;;;;;;;;;;26.08;44.90;100727.38;4953765;28;6804;-77
2022/07/01 08:24:49;;;;;;;;;;;;;;;26.23;45.20;100736.00;4936215;28;7335;-77
2022/07/01 08:27:15;;;;;;;;;;;;;;;26.29;43.96;100734.16;4976761;28;7250;-77
2022/07/01 08:29:41;;;;;;;;;;;;;;;26.15;43.35;100734.28;4952085;28;6796;-77
2022/07/01 08:32:08;;;;;;;;;;;;;;;26.10;43.42;100741.38;4978334;28;7628;-77
2022/07/01 08:34:35;;;;;;;;;;;;;;;26.26;43.63;100739.47;4954488;28;6954;-77
2022/07/01 08:37:02;;;;;;;;;;;;;;;26.55;42.85;100734.72;4936811;28;8487;-77
2022/07/01 08:39:28;;;;;;;;;;;;;;;26.72;42.20;100734.50;4981501;28;6990;-77
2022/07/01 08:41:55;;;;;;;;;;;;;;;26.97;42.12;100737.69;4981098;28;7027;-77
2022/07/01 08:44:21;;;;;;;;;;;;;;;27.41;41.61;100729.06;4980353;28;8346;-77
2022/07/01 08:46:47;;;;;;;;;;;;;;;27.88;41.18;100730.91;4959972;28;6799;-77
2022/07/01 08:49:13;;;;;;;;;;;;;;;28.30;39.89;100724.84;4964739;28;7863;-77
2022/07/01 08:51:39;;;;;;;;;;;;;;;28.73;38.87;100726.56;4977451;28;6788;-77
2022/07/01 08:54:05;;;;;;;;;;;;;;;29.18;39.03;100735.22;4979859;28;6776;-77
2022/07/01 08:56:43;;;;;;;;;;;;;;;29.76;38.54;100738.16;4979882;28;6960;-77
2022/07/01 08:59:24;;;;;;;;;;;;;;;30.41;36.97;100732.84;4951200;28;7248;-76
2022/07/01 09:02:01;;;;;;;;;;;;;;;30.89;35.81;100741.13;4947655;28;6996;-77
2022/07/01 09:04:28;;;;;;;;;;;;;;;30.93;34.86;100739.25;4963682;28;6780;-76
2022/07/01 09:07:06;;;;;;;;;;;;;;;30.57;34.21;100741.19;4962304;28;8417;-76
2022/07/01 09:09:38;;;;;;;;;;;;;;;30.26;35.24;100752.69;4953314;28;6987;-77
2022/07/01 09:12:06;;;;;;;;;;;;;;;30.12;35.60;100746.91;4948932;28;6964;-76
2022/07/01 09:14:34;;;;;;;;;;;;;;;30.13;34.38;100753.91;4950560;28;7009;-79
2022/07/01 09:17:04;;;;;;;;;;;;;;;29.97;34.72;100756.97;4971791;28;7005;-79
2022/07/01 09:19:37;;;;;;;;;;;;;;;29.87;34.19;100763.44;4937675;28;7214;-78
2022/07/01 09:22:04;;;;;;;;;;;;;;;29.94;34.53;100763.22;4944816;28;8387;-79
2022/07/01 09:24:37;;;;;;;;;;;;;;;30.25;34.69;100764.16;4980028;28;9535;-79
2022/07/01 09:27:13;;;;;;;;;;;;;;;30.44;34.44;100771.56;4963422;28;7081;-79
2022/07/01 09:29:45;;;;;;;;;;;;;;;30.84;33.90;100765.09;4926191;28;8722;-79
2022/07/01 09:32:16;;;;;;;;;;;;;;;31.39;33.35;100761.59;4953215;28;7006;-79
2022/07/01 09:34:45;;;;;;;;;;;;;;;31.98;32.78;100756.06;4940175;28;8802;-78
2022/07/01 09:37:22;;;;;;;;;;;;;;;32.51;32.05;100762.09;4954029;28;6991;-79
2022/07/01 09:39:54;;;;;;;;;;;;;;;32.98;31.06;100769.13;4952111;28;7062;-78
2022/07/01 09:42:24;;;;;;;;;;;;;;;33.08;30.17;100773.13;4957018;28;6852;-78
2022/07/01 09:45:10;;;;;;;;;;;;;;;32.94;29.92;100776.34;4934125;28;8423;-79
2022/07/01 09:47:40;;;;;;;;;;;;;;;32.38;29.79;100777.63;4943358;28;7232;-79
2022/07/01 09:50:07;;;;;;;;;;;;;;;31.60;29.96;100780.31;4944471;28;6845;-78
2022/07/01 09:52:34;;;;;;;;;;;;;;;31.16;30.57;100787.00;4927073;28;7666;-79
2022/07/01 09:55:00;;;;;;;;;;;;;;;30.88;31.00;100776.44;4955747;28;6987;-78
2022/07/01 09:57:26;;;;;;;;;;;;;;;31.07;31.80;100776.72;4943854;28;6927;-78
2022/07/01 09:59:52;;;;;;;;;;;;;;;31.41;30.96;100774.78;4950880;28;6983;-79
2022/07/01 10:02:20;;;;;;;;;;;;;;;31.83;31.09;100770.72;4929687;28;6991;-79
2022/07/01 10:04:53;;;;;;;;;;;;;;;32.33;30.24;100771.56;4940661;28;6873;-78
2022/07/01 10:07:36;;;;;;;;;;;;;;;32.89;29.79;100782.75;4935560;28;6815;-79
2022/07/01 10:10:34;;;;;;;;;;;;;;;33.34;28.33;100772.97;4951250;28;7206;-79
2022/07/01 10:13:06;;;;;;;;;;;;;;;33.72;27.68;100767.00;4942304;28;7058;-78
2022/07/01 10:15:32;;;;;;;;;;;;;;;34.05;27.60;100764.69;4950214;28;6820;-80
2022/07/01 10:17:57;;;;;;;;;;;;;;;34.51;27.65;100765.28;4973152;28;7161;-79
2022/07/01 10:20:29;;;;;;;;;;;;;;;34.97;26.97;100760.44;4941051;28;6943;-78
2022/07/01 10:23:07;;;;;;;;;;;;;;;35.32;26.45;100756.97;4973490;28;8036;-79
2022/07/01 10:25:48;;;;;;;;;;;;;;;35.35;26.31;100766.56;4945040;28;6978;-79
2022/07/01 10:28:25;;;;;;;;;;;;;;;34.82;25.43;100763.81;4952786;28;6896;-79
2022/07/01 10:31:01;;;;;;;;;;;;;;;33.93;26.36;100766.03;4950113;28;8460;-78
2022/07/01 10:33:45;;;;;;;;;;;;;;;33.24;26.69;100777.84;4974889;28;7227;-78
2022/07/01 10:36:19;;;;;;;;;;;;;;;32.58;27.42;100779.50;4963898;28;7310;-78
2022/07/01 10:41:39;;;;;;;;;;;;;;;31.43;28.29;100778.22;4958390;28;6863;-78
2022/07/01 10:44:13;;;;;;;;;;;;;;;31.00;28.66;100778.69;4952750;28;7410;-78
2022/07/01 10:47:01;;;;;;;;;;;;;;;30.99;29.46;100774.31;4921140;28;7133;-78
2022/07/01 10:49:36;;;;;;;;;;;;;;;31.40;29.78;100773.91;4951772;28;8299;-78
2022/07/01 10:52:07;;;;;;;;;;;;;;;31.94;29.86;100771.19;4971983;28;7435;-79
2022/07/01 10:54:35;;;;;;;;;;;;;;;32.61;29.01;100778.53;4943703;28;7164;-78
2022/07/01 10:57:22;;;;;;;;;;;;;;;33.20;28.21;100770.91;4956776;28;7147;-78
2022/07/01 11:00:00;;;;;;;;;;;;;;;33.67;27.27;100759.22;4964208;28;7202;-78
2022/07/01 11:02:31;;;;;;;;;;;;;;;34.03;27.02;100760.34;4955412;28;7264;-78
2022/07/01 11:05:03;;;;;;;;;;;;;;;34.39;26.43;100767.59;4946690;28;6985;-78
2022/07/01 11:07:33;;;;;;;;;;;;;;;34.83;26.31;100769.09;4955345;28;7200;-78
2022/07/01 11:10:01;;;;;;;;;;;;;;;35.08;25.37;100759.06;4946030;28;6796;-78
2022/07/01 11:12:31;;;;;;;;;;;;;;;35.04;25.19;100759.19;4957316;28;7253;-78
2022/07/01 11:15:01;;;;;;;;;;;;;;;35.06;25.19;100755.59;4974620;28;8805;-78
2022/07/01 11:17:27;;;;;;;;;;;;;;;35.14;24.96;100756.94;4942270;28;8441;-78
2022/07/01 11:19:57;;;;;;;;;;;;;;;34.67;24.68;100763.66;4955533;28;6776;-79
2022/07/01 11:22:33;;;;;;;;;;;;;;;33.64;24.77;100756.69;4943329;28;7190;-78
2022/07/01 11:25:10;;;;;;;;;;;;;;;32.51;25.55;100770.06;4968856;28;7390;-79
2022/07/01 11:27:38;;;;;;;;;;;;;;;31.79;26.05;100762.00;4965219;28;7376;-78
2022/07/01 11:30:13;;;;;;;;;;;;;;;31.20;27.10;100771.03;4957962;28;7292;-78
2022/07/01 11:32:59;;;;;;;;;;;;;;;31.00;28.30;100762.81;4932059;28;11336;-79
2022/07/01 11:41:09;;;;;;;;;;;;;;;32.51;27.06;100762.09;4972441;28;6947;-79
2022/07/01 11:43:38;;;;;;;;;;;;;;;32.79;27.15;100761.88;4979571;28;7247;-77
2022/07/01 11:46:06;;;;;;;;;;;;;;;33.02;26.19;100765.41;4943340;28;8389;-78
2022/07/01 11:48:44;;;;;;;;;;;;;;;33.01;26.12;100755.72;4973224;28;7302;-78
2022/07/01 11:51:18;;;;;;;;;;;;;;;33.02;26.19;100760.09;4950236;28;7546;-78
2022/07/01 11:53:48;;;;;;;;;;;;;;;33.31;25.73;100759.84;4962972;28;7108;-78
2022/07/01 11:56:16;;;;;;;;;;;;;;;33.66;25.52;100753.03;4926814;28;7288;-78
2022/07/01 11:58:52;;;;;;;;;;;;;;;33.76;24.93;100749.97;4951005;28;7414;-78
2022/07/01 12:01:30;;;;;;;;;;;;;;;33.65;25.21;100750.44;4974825;28;7192;-78
2022/07/01 12:04:00;;;;;;;;;;;;;;;33.55;25.07;100755.31;4965157;28;6800;-78
2022/07/01 12:06:27;;;;;;;;;;;;;;;33.25;25.42;100766.28;4917104;28;7070;-78
2022/07/01 12:08:56;;;;;;;;;;;;;;;32.87;25.42;100763.38;4944629;28;7217;-78
2022/07/01 12:11:25;;;;;;;;;;;;;;;32.57;25.94;100763.66;4977172;28;8248;-77
2022/07/01 12:13:53;;;;;;;;;;;;;;;32.75;26.79;100760.28;4965449;28;7315;-78
2022/07/01 12:16:19;;;;;;;;;;;;;;;33.15;25.92;100776.41;4982954;28;7007;-77
2022/07/01 12:19:00;;;;;;;;;;;;;;;33.35;25.49;100770.28;4958337;28;7026;-77
2022/07/01 12:21:28;;;;;;;;;;;;;;;33.31;25.08;100765.16;4951786;28;7220;-78
2022/07/01 12:24:05;;;;;;;;;;;;;;;32.99;24.80;100768.22;4957946;28;6793;-77
2022/07/01 12:26:31;;;;;;;;;;;;;;;32.64;25.13;100781.03;4941245;28;8425;-77
2022/07/01 12:28:56;;;;;;;;;;;;;;;32.64;25.51;100779.28;4983455;28;7254;-77
2022/07/01 12:31:22;;;;;;;;;;;;;;;32.95;25.91;100771.94;4969751;28;7223;-77
2022/07/01 12:33:51;;;;;;;;;;;;;;;33.34;25.42;100763.25;4957358;28;7247;-77
2022/07/01 12:36:18;;;;;;;;;;;;;;;33.74;25.48;100760.66;4983448;28;6797;-77
2022/07/01 12:38:44;;;;;;;;;;;;;;;34.14;25.01;100762.50;4970173;28;6981;-77
2022/07/01 12:41:34;;;;;;;;;;;;;;;34.34;24.13;100753.63;4983936;28;6776;-77
2022/07/01 12:44:05;;;;;;;;;;;;;;;33.88;24.00;100762.72;4945089;28;7246;-77
2022/07/01 12:46:32;;;;;;;;;;;;;;;33.18;24.74;100760.38;4954112;28;6796;-77
2022/07/01 12:48:59;;;;;;;;;;;;;;;33.04;25.21;100762.72;4956541;28;6827;-77
2022/07/01 12:51:34;;;;;;;;;;;;;;;33.30;25.38;100756.31;4980063;28;6954;-77
2022/07/01 12:54:00;;;;;;;;;;;;;;;33.58;24.87;100749.84;4984888;28;6878;-77
2022/07/01 12:56:29;;;;;;;;;;;;;;;33.57;24.61;100748.13;4979193;28;6994;-77
2022/07/01 12:58:55;;;;;;;;;;;;;;;33.13;24.85;100759.69;4967499;28;7203;-77
2022/07/01 13:01:21;;;;;;;;;;;;;;;32.55;24.93;100759.28;4941373;28;7102;-77
2022/07/01 13:03:48;;;;;;;;;;;;;;;32.28;25.50;100751.41;4957194;28;7454;-78
2022/07/01 13:06:14;;;;;;;;;;;;;;;32.40;25.62;100754.56;4948564;28;6830;-78
2022/07/01 13:08:40;;;;;;;;;;;;;;;32.80;26.42;100758.28;4950487;28;6783;-78
2022/07/01 13:11:06;;;;;;;;;;;;;;;33.25;25.67;100766.28;4967632;28;7098;-77
2022/07/01 13:13:32;;;;;;;;;;;;;;;33.44;25.34;100760.19;4924364;28;6821;-77